sensor_id;sensor_type;location;lat;lon;timestamp;P1;durP1;ratioP1;P2;durP2;ratioP2
31692;SDS011;37436;53.230;6.614;2023-03-20T00:01:58;5.80;;;3.05;;
31692;SDS011;37436;53.230;6.614;2023-03-20T00:04:24;6.10;;;3.10;;
31692;SDS011;37436;53.230;6.614;2023-03-20T00:06:50;5.85;;;3.40;;
31692;SDS011;37436;53.230;6.614;2023-03-20T00:09:16;9.43;;;3.40;;
31692;SDS011;37436;53.230;6.614;2023-03-20T00:11:46;9.88;;;4.18;;
31692;SDS011;37436;53.230;6.614;2023-03-20T00:14:13;8.95;;;3.78;;
31692;SDS011;37436;53.230;6.614;2023-03-20T00:16:41;7.18;;;3.22;;
31692;SDS011;37436;53.230;6.614;2023-03-20T00:19:17;7.93;;;4.78;;
31692;SDS011;37436;53.230;6.614;2023-03-20T00:21:44;12.65;;;3.65;;
31692;SDS011;37436;53.230;6.614;2023-03-20T00:24:12;7.13;;;3.85;;
31692;SDS011;37436;53.230;6.614;2023-03-20T00:26:38;9.55;;;3.97;;
31692;SDS011;37436;53.230;6.614;2023-03-20T00:29:05;9.68;;;3.67;;
31692;SDS011;37436;53.230;6.614;2023-03-20T00:31:33;8.50;;;3.78;;
31692;SDS011;37436;53.230;6.614;2023-03-20T00:34:04;7.88;;;3.80;;
31692;SDS011;37436;53.230;6.614;2023-03-20T00:36:31;12.77;;;3.17;;
31692;SDS011;37436;53.230;6.614;2023-03-20T00:38:57;8.90;;;3.72;;
31692;SDS011;37436;53.230;6.614;2023-03-20T00:43:52;5.82;;;3.25;;
31692;SDS011;37436;53.230;6.614;2023-03-20T00:46:20;10.07;;;3.95;;
31692;SDS011;37436;53.230;6.614;2023-03-20T00:48:46;9.38;;;3.47;;
31692;SDS011;37436;53.230;6.614;2023-03-20T00:51:15;10.18;;;3.88;;
31692;SDS011;37436;53.230;6.614;2023-03-20T00:53:41;11.20;;;3.60;;
31692;SDS011;37436;53.230;6.614;2023-03-20T00:58:50;8.35;;;3.72;;
31692;SDS011;37436;53.230;6.614;2023-03-20T01:01:16;4.93;;;3.33;;
31692;SDS011;37436;53.230;6.614;2023-03-20T01:03:44;16.00;;;3.47;;
31692;SDS011;37436;53.230;6.614;2023-03-20T01:06:11;9.52;;;3.65;;
31692;SDS011;37436;53.230;6.614;2023-03-20T01:08:38;13.18;;;3.70;;
31692;SDS011;37436;53.230;6.614;2023-03-20T01:11:05;12.80;;;3.88;;
31692;SDS011;37436;53.230;6.614;2023-03-20T01:13:31;9.05;;;3.78;;
31692;SDS011;37436;53.230;6.614;2023-03-20T01:16:21;13.13;;;4.05;;
31692;SDS011;37436;53.230;6.614;2023-03-20T01:18:48;10.07;;;3.85;;
31692;SDS011;37436;53.230;6.614;2023-03-20T01:21:15;17.45;;;3.85;;
31692;SDS011;37436;53.230;6.614;2023-03-20T01:23:44;8.80;;;3.25;;
31692;SDS011;37436;53.230;6.614;2023-03-20T01:28:47;10.90;;;3.60;;
31692;SDS011;37436;53.230;6.614;2023-03-20T01:31:14;6.50;;;3.72;;
31692;SDS011;37436;53.230;6.614;2023-03-20T01:33:42;7.60;;;3.85;;
31692;SDS011;37436;53.230;6.614;2023-03-20T01:36:12;11.43;;;3.53;;
31692;SDS011;37436;53.230;6.614;2023-03-20T01:38:39;11.45;;;3.90;;
31692;SDS011;37436;53.230;6.614;2023-03-20T01:43:50;11.48;;;3.90;;
31692;SDS011;37436;53.230;6.614;2023-03-20T01:46:29;8.73;;;3.28;;
31692;SDS011;37436;53.230;6.614;2023-03-20T01:48:57;9.75;;;4.35;;
31692;SDS011;37436;53.230;6.614;2023-03-20T01:51:33;9.10;;;4.43;;
31692;SDS011;37436;53.230;6.614;2023-03-20T01:54:07;14.98;;;3.88;;
31692;SDS011;37436;53.230;6.614;2023-03-20T01:56:38;16.00;;;4.13;;
31692;SDS011;37436;53.230;6.614;2023-03-20T01:59:16;10.38;;;3.67;;
31692;SDS011;37436;53.230;6.614;2023-03-20T02:01:44;9.52;;;4.63;;
31692;SDS011;37436;53.230;6.614;2023-03-20T02:04:13;16.77;;;4.45;;
31692;SDS011;37436;53.230;6.614;2023-03-20T02:06:41;13.40;;;4.63;;
31692;SDS011;37436;53.230;6.614;2023-03-20T02:09:09;11.15;;;4.22;;
31692;SDS011;37436;53.230;6.614;2023-03-20T02:11:39;12.18;;;5.57;;
31692;SDS011;37436;53.230;6.614;2023-03-20T02:14:07;19.55;;;5.43;;
31692;SDS011;37436;53.230;6.614;2023-03-20T02:16:36;13.93;;;5.22;;
31692;SDS011;37436;53.230;6.614;2023-03-20T02:19:02;11.88;;;3.75;;
31692;SDS011;37436;53.230;6.614;2023-03-20T02:21:44;12.85;;;5.50;;
31692;SDS011;37436;53.230;6.614;2023-03-20T02:35:31;10.60;;;5.00;;
31692;SDS011;37436;53.230;6.614;2023-03-20T02:38:08;19.10;;;5.45;;
31692;SDS011;37436;53.230;6.614;2023-03-20T02:45:42;14.88;;;4.88;;
31692;SDS011;37436;53.230;6.614;2023-03-20T02:48:16;26.65;;;6.22;;
31692;SDS011;37436;53.230;6.614;2023-03-20T02:53:37;24.15;;;6.65;;
31692;SDS011;37436;53.230;6.614;2023-03-20T02:59:04;15.40;;;5.97;;
31692;SDS011;37436;53.230;6.614;2023-03-20T03:01:34;11.57;;;5.03;;
31692;SDS011;37436;53.230;6.614;2023-03-20T03:04:11;23.13;;;6.05;;
31692;SDS011;37436;53.230;6.614;2023-03-20T03:06:43;22.38;;;6.63;;
31692;SDS011;37436;53.230;6.614;2023-03-20T03:11:40;11.32;;;4.88;;
31692;SDS011;37436;53.230;6.614;2023-03-20T03:14:13;10.32;;;5.00;;
31692;SDS011;37436;53.230;6.614;2023-03-20T03:16:40;18.92;;;5.93;;
31692;SDS011;37436;53.230;6.614;2023-03-20T03:19:08;24.23;;;6.63;;
31692;SDS011;37436;53.230;6.614;2023-03-20T03:21:36;14.57;;;5.88;;
31692;SDS011;37436;53.230;6.614;2023-03-20T03:24:04;11.00;;;4.82;;
31692;SDS011;37436;53.230;6.614;2023-03-20T03:26:34;16.55;;;5.97;;
31692;SDS011;37436;53.230;6.614;2023-03-20T03:29:06;18.52;;;5.32;;
31692;SDS011;37436;53.230;6.614;2023-03-20T03:31:44;12.35;;;4.25;;
31692;SDS011;37436;53.230;6.614;2023-03-20T03:34:12;20.92;;;6.75;;
31692;SDS011;37436;53.230;6.614;2023-03-20T03:41:45;19.27;;;6.80;;
31692;SDS011;37436;53.230;6.614;2023-03-20T03:44:21;22.10;;;6.68;;
31692;SDS011;37436;53.230;6.614;2023-03-20T03:49:25;20.30;;;6.55;;
31692;SDS011;37436;53.230;6.614;2023-03-20T03:51:54;22.02;;;7.40;;
31692;SDS011;37436;53.230;6.614;2023-03-20T03:54:37;19.13;;;6.50;;
31692;SDS011;37436;53.230;6.614;2023-03-20T03:57:05;18.30;;;6.50;;
31692;SDS011;37436;53.230;6.614;2023-03-20T03:59:34;16.52;;;6.72;;
31692;SDS011;37436;53.230;6.614;2023-03-20T04:02:01;15.15;;;6.25;;
31692;SDS011;37436;53.230;6.614;2023-03-20T04:04:36;12.25;;;5.80;;
31692;SDS011;37436;53.230;6.614;2023-03-20T04:07:12;16.95;;;6.90;;
31692;SDS011;37436;53.230;6.614;2023-03-20T04:09:39;22.98;;;6.55;;
31692;SDS011;37436;53.230;6.614;2023-03-20T04:12:05;17.00;;;6.55;;
31692;SDS011;37436;53.230;6.614;2023-03-20T04:14:31;11.93;;;6.07;;
31692;SDS011;37436;53.230;6.614;2023-03-20T04:16:58;28.20;;;7.63;;
31692;SDS011;37436;53.230;6.614;2023-03-20T04:19:27;22.67;;;7.70;;
31692;SDS011;37436;53.230;6.614;2023-03-20T04:21:53;17.42;;;6.50;;
31692;SDS011;37436;53.230;6.614;2023-03-20T04:24:20;12.57;;;6.30;;
31692;SDS011;37436;53.230;6.614;2023-03-20T04:26:47;27.20;;;6.93;;
31692;SDS011;37436;53.230;6.614;2023-03-20T04:29:13;21.20;;;6.53;;
31692;SDS011;37436;53.230;6.614;2023-03-20T04:31:40;22.77;;;6.07;;
31692;SDS011;37436;53.230;6.614;2023-03-20T04:34:06;19.35;;;7.35;;
31692;SDS011;37436;53.230;6.614;2023-03-20T04:36:35;14.18;;;5.90;;
31692;SDS011;37436;53.230;6.614;2023-03-20T04:39:02;9.23;;;4.50;;
31692;SDS011;37436;53.230;6.614;2023-03-20T04:41:28;21.58;;;7.43;;
31692;SDS011;37436;53.230;6.614;2023-03-20T04:43:54;22.25;;;7.03;;
31692;SDS011;37436;53.230;6.614;2023-03-20T04:46:29;12.00;;;4.50;;
31692;SDS011;37436;53.230;6.614;2023-03-20T04:48:56;23.15;;;7.18;;
31692;SDS011;37436;53.230;6.614;2023-03-20T04:51:22;9.88;;;4.82;;
31692;SDS011;37436;53.230;6.614;2023-03-20T04:53:49;24.45;;;6.70;;
31692;SDS011;37436;53.230;6.614;2023-03-20T04:56:15;19.60;;;6.85;;
31692;SDS011;37436;53.230;6.614;2023-03-20T04:58:42;17.75;;;7.30;;
31692;SDS011;37436;53.230;6.614;2023-03-20T05:01:08;20.73;;;7.07;;
31692;SDS011;37436;53.230;6.614;2023-03-20T05:03:34;16.40;;;6.20;;
31692;SDS011;37436;53.230;6.614;2023-03-20T05:06:04;16.20;;;7.63;;
31692;SDS011;37436;53.230;6.614;2023-03-20T05:08:30;20.45;;;7.15;;
31692;SDS011;37436;53.230;6.614;2023-03-20T05:11:00;31.17;;;7.28;;
31692;SDS011;37436;53.230;6.614;2023-03-20T05:13:29;12.23;;;5.05;;
31692;SDS011;37436;53.230;6.614;2023-03-20T05:15:58;18.60;;;7.45;;
31692;SDS011;37436;53.230;6.614;2023-03-20T05:18:25;21.50;;;6.53;;
31692;SDS011;37436;53.230;6.614;2023-03-20T05:20:55;12.35;;;5.82;;
31692;SDS011;37436;53.230;6.614;2023-03-20T05:23:21;16.40;;;6.97;;
31692;SDS011;37436;53.230;6.614;2023-03-20T05:25:51;22.05;;;7.10;;
31692;SDS011;37436;53.230;6.614;2023-03-20T05:28:18;19.05;;;7.50;;
31692;SDS011;37436;53.230;6.614;2023-03-20T05:30:44;23.30;;;6.70;;
31692;SDS011;37436;53.230;6.614;2023-03-20T05:33:11;14.43;;;6.55;;
31692;SDS011;37436;53.230;6.614;2023-03-20T05:35:40;13.50;;;6.03;;
31692;SDS011;37436;53.230;6.614;2023-03-20T05:38:07;14.73;;;5.90;;
31692;SDS011;37436;53.230;6.614;2023-03-20T05:40:33;10.80;;;5.15;;
31692;SDS011;37436;53.230;6.614;2023-03-20T05:42:59;12.30;;;6.53;;
31692;SDS011;37436;53.230;6.614;2023-03-20T05:45:26;15.60;;;6.10;;
31692;SDS011;37436;53.230;6.614;2023-03-20T05:47:52;13.38;;;5.25;;
31692;SDS011;37436;53.230;6.614;2023-03-20T05:50:20;15.35;;;4.72;;
31692;SDS011;37436;53.230;6.614;2023-03-20T05:52:46;18.58;;;5.97;;
31692;SDS011;37436;53.230;6.614;2023-03-20T05:55:12;17.98;;;6.75;;
31692;SDS011;37436;53.230;6.614;2023-03-20T05:57:51;17.95;;;6.22;;
31692;SDS011;37436;53.230;6.614;2023-03-20T06:00:21;16.70;;;6.47;;
31692;SDS011;37436;53.230;6.614;2023-03-20T06:02:51;15.30;;;7.05;;
31692;SDS011;37436;53.230;6.614;2023-03-20T06:05:17;13.13;;;4.45;;
31692;SDS011;37436;53.230;6.614;2023-03-20T06:07:44;18.75;;;4.72;;
31692;SDS011;37436;53.230;6.614;2023-03-20T06:10:12;18.70;;;7.68;;
31692;SDS011;37436;53.230;6.614;2023-03-20T06:12:38;20.25;;;6.38;;
31692;SDS011;37436;53.230;6.614;2023-03-20T06:15:08;10.07;;;3.45;;
31692;SDS011;37436;53.230;6.614;2023-03-20T06:17:34;18.67;;;7.07;;
31692;SDS011;37436;53.230;6.614;2023-03-20T06:20:03;20.58;;;7.50;;
31692;SDS011;37436;53.230;6.614;2023-03-20T06:22:33;19.83;;;7.15;;
31692;SDS011;37436;53.230;6.614;2023-03-20T06:25:01;19.73;;;7.05;;
31692;SDS011;37436;53.230;6.614;2023-03-20T06:27:27;15.52;;;7.05;;
31692;SDS011;37436;53.230;6.614;2023-03-20T06:29:55;12.32;;;5.75;;
31692;SDS011;37436;53.230;6.614;2023-03-20T06:32:21;11.48;;;5.80;;
31692;SDS011;37436;53.230;6.614;2023-03-20T06:34:47;19.95;;;7.85;;
31692;SDS011;37436;53.230;6.614;2023-03-20T06:37:17;23.45;;;7.45;;
31692;SDS011;37436;53.230;6.614;2023-03-20T06:39:44;16.50;;;6.80;;
31692;SDS011;37436;53.230;6.614;2023-03-20T06:42:10;14.60;;;5.28;;
31692;SDS011;37436;53.230;6.614;2023-03-20T06:44:37;18.17;;;6.90;;
31692;SDS011;37436;53.230;6.614;2023-03-20T06:47:09;18.45;;;7.78;;
31692;SDS011;37436;53.230;6.614;2023-03-20T06:49:35;24.73;;;7.65;;
31692;SDS011;37436;53.230;6.614;2023-03-20T06:52:01;16.73;;;7.82;;
31692;SDS011;37436;53.230;6.614;2023-03-20T06:54:30;18.80;;;7.85;;
31692;SDS011;37436;53.230;6.614;2023-03-20T06:56:57;24.40;;;7.20;;
31692;SDS011;37436;53.230;6.614;2023-03-20T06:59:23;17.85;;;7.00;;
31692;SDS011;37436;53.230;6.614;2023-03-20T07:01:50;10.18;;;4.47;;
31692;SDS011;37436;53.230;6.614;2023-03-20T07:04:16;15.57;;;7.53;;
31692;SDS011;37436;53.230;6.614;2023-03-20T07:06:42;16.45;;;6.30;;
31692;SDS011;37436;53.230;6.614;2023-03-20T07:09:08;14.57;;;5.80;;
31692;SDS011;37436;53.230;6.614;2023-03-20T07:11:36;23.42;;;7.65;;
31692;SDS011;37436;53.230;6.614;2023-03-20T07:14:08;20.23;;;7.00;;
31692;SDS011;37436;53.230;6.614;2023-03-20T07:16:34;21.92;;;6.18;;
31692;SDS011;37436;53.230;6.614;2023-03-20T07:19:02;13.20;;;6.30;;
31692;SDS011;37436;53.230;6.614;2023-03-20T07:21:29;16.40;;;7.40;;
31692;SDS011;37436;53.230;6.614;2023-03-20T07:23:55;20.92;;;7.45;;
31692;SDS011;37436;53.230;6.614;2023-03-20T07:26:22;19.52;;;7.55;;
31692;SDS011;37436;53.230;6.614;2023-03-20T07:29:09;20.40;;;7.63;;
31692;SDS011;37436;53.230;6.614;2023-03-20T07:31:49;20.00;;;6.93;;
31692;SDS011;37436;53.230;6.614;2023-03-20T07:37:10;23.25;;;7.50;;
31692;SDS011;37436;53.230;6.614;2023-03-20T07:39:40;17.33;;;6.70;;
31692;SDS011;37436;53.230;6.614;2023-03-20T07:42:06;25.00;;;6.85;;
31692;SDS011;37436;53.230;6.614;2023-03-20T07:44:32;20.10;;;7.63;;
31692;SDS011;37436;53.230;6.614;2023-03-20T07:47:06;23.25;;;8.15;;
31692;SDS011;37436;53.230;6.614;2023-03-20T07:49:32;18.00;;;7.53;;
31692;SDS011;37436;53.230;6.614;2023-03-20T07:51:59;14.05;;;6.75;;
31692;SDS011;37436;53.230;6.614;2023-03-20T07:54:25;18.30;;;7.88;;
31692;SDS011;37436;53.230;6.614;2023-03-20T07:56:51;17.83;;;7.07;;
31692;SDS011;37436;53.230;6.614;2023-03-20T07:59:19;20.17;;;8.68;;
31692;SDS011;37436;53.230;6.614;2023-03-20T08:01:45;27.13;;;7.72;;
31692;SDS011;37436;53.230;6.614;2023-03-20T08:04:11;18.23;;;8.35;;
31692;SDS011;37436;53.230;6.614;2023-03-20T08:06:38;18.40;;;7.68;;
31692;SDS011;37436;53.230;6.614;2023-03-20T08:09:04;23.92;;;8.32;;
31692;SDS011;37436;53.230;6.614;2023-03-20T08:11:34;16.33;;;7.45;;
31692;SDS011;37436;53.230;6.614;2023-03-20T08:14:04;12.77;;;5.38;;
31692;SDS011;37436;53.230;6.614;2023-03-20T08:16:31;26.17;;;8.30;;
31692;SDS011;37436;53.230;6.614;2023-03-20T08:18:59;30.73;;;8.38;;
31692;SDS011;37436;53.230;6.614;2023-03-20T08:21:32;21.55;;;8.57;;
31692;SDS011;37436;53.230;6.614;2023-03-20T08:24:20;10.50;;;4.63;;
31692;SDS011;37436;53.230;6.614;2023-03-20T08:26:45;19.90;;;7.57;;
31692;SDS011;37436;53.230;6.614;2023-03-20T08:29:30;16.88;;;7.55;;
31692;SDS011;37436;53.230;6.614;2023-03-20T08:32:01;19.17;;;8.70;;
31692;SDS011;37436;53.230;6.614;2023-03-20T08:34:27;28.38;;;9.77;;
31692;SDS011;37436;53.230;6.614;2023-03-20T08:36:54;17.15;;;8.38;;
31692;SDS011;37436;53.230;6.614;2023-03-20T08:42:06;19.98;;;6.93;;
31692;SDS011;37436;53.230;6.614;2023-03-20T08:44:43;29.23;;;8.88;;
31692;SDS011;37436;53.230;6.614;2023-03-20T08:47:13;23.73;;;8.60;;
31692;SDS011;37436;53.230;6.614;2023-03-20T08:49:52;22.80;;;7.53;;
31692;SDS011;37436;53.230;6.614;2023-03-20T08:52:22;18.25;;;8.25;;
31692;SDS011;37436;53.230;6.614;2023-03-20T09:00:46;28.42;;;8.82;;
31692;SDS011;37436;53.230;6.614;2023-03-20T09:09:52;13.10;;;6.43;;
31692;SDS011;37436;53.230;6.614;2023-03-20T09:12:36;28.05;;;8.98;;
31692;SDS011;37436;53.230;6.614;2023-03-20T09:15:34;24.00;;;9.00;;
31692;SDS011;37436;53.230;6.614;2023-03-20T09:18:04;23.80;;;8.32;;
31692;SDS011;37436;53.230;6.614;2023-03-20T09:20:35;19.80;;;8.73;;
31692;SDS011;37436;53.230;6.614;2023-03-20T09:23:06;17.85;;;7.88;;
31692;SDS011;37436;53.230;6.614;2023-03-20T09:25:35;19.00;;;7.60;;
31692;SDS011;37436;53.230;6.614;2023-03-20T09:30:59;16.55;;;5.90;;
31692;SDS011;37436;53.230;6.614;2023-03-20T09:33:46;15.98;;;7.13;;
31692;SDS011;37436;53.230;6.614;2023-03-20T09:36:15;17.40;;;7.93;;
31692;SDS011;37436;53.230;6.614;2023-03-20T09:48:12;13.32;;;5.50;;
31692;SDS011;37436;53.230;6.614;2023-03-20T09:53:36;29.67;;;10.55;;
31692;SDS011;37436;53.230;6.614;2023-03-20T09:56:05;17.52;;;6.15;;
31692;SDS011;37436;53.230;6.614;2023-03-20T09:59:01;23.80;;;7.72;;
31692;SDS011;37436;53.230;6.614;2023-03-20T10:01:54;18.20;;;7.65;;
31692;SDS011;37436;53.230;6.614;2023-03-20T10:04:21;19.25;;;7.70;;
31692;SDS011;37436;53.230;6.614;2023-03-20T10:07:08;21.98;;;7.10;;
31692;SDS011;37436;53.230;6.614;2023-03-20T10:09:42;13.75;;;6.22;;
31692;SDS011;37436;53.230;6.614;2023-03-20T10:12:23;21.00;;;7.22;;
31692;SDS011;37436;53.230;6.614;2023-03-20T10:18:42;13.10;;;5.50;;
31692;SDS011;37436;53.230;6.614;2023-03-20T10:20:40;19.60;;;7.20;;
31692;SDS011;37436;53.230;6.614;2023-03-20T10:23:23;22.80;;;6.68;;
31692;SDS011;37436;53.230;6.614;2023-03-20T10:42:57;18.95;;;6.57;;
31692;SDS011;37436;53.230;6.614;2023-03-20T10:51:45;12.10;;;7.53;;
31692;SDS011;37436;53.230;6.614;2023-03-20T10:57:27;20.05;;;7.60;;
31692;SDS011;37436;53.230;6.614;2023-03-20T10:59:57;11.63;;;6.47;;
31692;SDS011;37436;53.230;6.614;2023-03-20T11:02:35;45.13;;;7.90;;
31692;SDS011;37436;53.230;6.614;2023-03-20T11:05:44;21.92;;;7.45;;
31692;SDS011;37436;53.230;6.614;2023-03-20T11:16:33;12.57;;;5.78;;
31692;SDS011;37436;53.230;6.614;2023-03-20T11:22:31;18.33;;;6.63;;
31692;SDS011;37436;53.230;6.614;2023-03-20T11:25:01;16.13;;;6.82;;
31692;SDS011;37436;53.230;6.614;2023-03-20T11:27:31;16.90;;;5.90;;
31692;SDS011;37436;53.230;6.614;2023-03-20T11:29:59;28.58;;;7.65;;
31692;SDS011;37436;53.230;6.614;2023-03-20T11:32:38;17.20;;;6.97;;
31692;SDS011;37436;53.230;6.614;2023-03-20T11:35:28;20.27;;;5.65;;
31692;SDS011;37436;53.230;6.614;2023-03-20T11:38:16;16.67;;;6.47;;
31692;SDS011;37436;53.230;6.614;2023-03-20T11:40:43;15.73;;;5.70;;
31692;SDS011;37436;53.230;6.614;2023-03-20T11:43:24;16.38;;;5.38;;
31692;SDS011;37436;53.230;6.614;2023-03-20T11:46:00;15.13;;;4.13;;
31692;SDS011;37436;53.230;6.614;2023-03-20T11:48:40;16.23;;;4.15;;
31692;SDS011;37436;53.230;6.614;2023-03-20T11:54:18;12.55;;;5.78;;
31692;SDS011;37436;53.230;6.614;2023-03-20T11:56:57;20.63;;;5.73;;
31692;SDS011;37436;53.230;6.614;2023-03-20T12:02:24;17.13;;;5.82;;
31692;SDS011;37436;53.230;6.614;2023-03-20T12:04:51;14.65;;;5.47;;
31692;SDS011;37436;53.230;6.614;2023-03-20T12:07:32;15.10;;;6.43;;
31692;SDS011;37436;53.230;6.614;2023-03-20T12:10:06;17.08;;;5.75;;
31692;SDS011;37436;53.230;6.614;2023-03-20T12:13:00;18.17;;;6.00;;
31692;SDS011;37436;53.230;6.614;2023-03-20T12:15:30;18.73;;;4.75;;
31692;SDS011;37436;53.230;6.614;2023-03-20T12:23:39;8.50;;;4.10;;
31692;SDS011;37436;53.230;6.614;2023-03-20T12:28:39;10.10;;;3.95;;
31692;SDS011;37436;53.230;6.614;2023-03-20T12:40:32;12.82;;;3.53;;
31692;SDS011;37436;53.230;6.614;2023-03-20T12:43:34;8.20;;;2.17;;
31692;SDS011;37436;53.230;6.614;2023-03-20T12:46:10;7.43;;;2.50;;
31692;SDS011;37436;53.230;6.614;2023-03-20T12:51:21;8.07;;;3.03;;
31692;SDS011;37436;53.230;6.614;2023-03-20T12:54:10;5.90;;;3.38;;
31692;SDS011;37436;53.230;6.614;2023-03-20T12:59:37;5.43;;;1.95;;
31692;SDS011;37436;53.230;6.614;2023-03-20T13:04:48;12.00;;;2.55;;
31692;SDS011;37436;53.230;6.614;2023-03-20T13:07:20;7.22;;;3.20;;
31692;SDS011;37436;53.230;6.614;2023-03-20T13:09:59;12.07;;;3.75;;
31692;SDS011;37436;53.230;6.614;2023-03-20T13:12:44;11.32;;;3.45;;
31692;SDS011;37436;53.230;6.614;2023-03-20T13:21:09;13.27;;;3.65;;
31692;SDS011;37436;53.230;6.614;2023-03-20T13:23:45;9.73;;;3.85;;
31692;SDS011;37436;53.230;6.614;2023-03-20T13:29:23;9.23;;;2.92;;
31692;SDS011;37436;53.230;6.614;2023-03-20T13:37:16;10.93;;;4.18;;
31692;SDS011;37436;53.230;6.614;2023-03-20T13:45:37;7.50;;;3.05;;
31692;SDS011;37436;53.230;6.614;2023-03-20T13:53:29;11.77;;;4.78;;
31692;SDS011;37436;53.230;6.614;2023-03-20T14:03:42;13.02;;;5.30;;
31692;SDS011;37436;53.230;6.614;2023-03-20T14:08:51;10.75;;;5.13;;
31692;SDS011;37436;53.230;6.614;2023-03-20T14:14:09;11.55;;;4.93;;
31692;SDS011;37436;53.230;6.614;2023-03-20T14:16:37;11.85;;;4.68;;
31692;SDS011;37436;53.230;6.614;2023-03-20T14:19:08;8.45;;;2.78;;
31692;SDS011;37436;53.230;6.614;2023-03-20T14:21:39;12.60;;;4.50;;
31692;SDS011;37436;53.230;6.614;2023-03-20T14:24:09;9.88;;;4.93;;
31692;SDS011;37436;53.230;6.614;2023-03-20T14:26:41;9.63;;;5.38;;
31692;SDS011;37436;53.230;6.614;2023-03-20T14:31:34;11.40;;;4.45;;
31692;SDS011;37436;53.230;6.614;2023-03-20T14:50:09;10.82;;;5.55;;
31692;SDS011;37436;53.230;6.614;2023-03-20T14:57:52;11.50;;;6.93;;
31692;SDS011;37436;53.230;6.614;2023-03-20T15:00:20;11.82;;;6.35;;
31692;SDS011;37436;53.230;6.614;2023-03-20T15:02:47;15.55;;;7.07;;
31692;SDS011;37436;53.230;6.614;2023-03-20T15:05:24;10.40;;;6.43;;
31692;SDS011;37436;53.230;6.614;2023-03-20T15:07:55;14.05;;;7.10;;
31692;SDS011;37436;53.230;6.614;2023-03-20T15:10:22;9.50;;;5.80;;
31692;SDS011;37436;53.230;6.614;2023-03-20T15:12:48;6.82;;;3.75;;
31692;SDS011;37436;53.230;6.614;2023-03-20T15:15:24;13.60;;;7.13;;
31692;SDS011;37436;53.230;6.614;2023-03-20T15:17:51;19.13;;;8.52;;
31692;SDS011;37436;53.230;6.614;2023-03-20T15:22:51;10.10;;;5.90;;
31692;SDS011;37436;53.230;6.614;2023-03-20T15:25:18;10.60;;;6.40;;
31692;SDS011;37436;53.230;6.614;2023-03-20T15:27:44;14.98;;;8.32;;
31692;SDS011;37436;53.230;6.614;2023-03-20T15:30:12;18.38;;;9.13;;
31692;SDS011;37436;53.230;6.614;2023-03-20T15:32:40;15.50;;;8.00;;
31692;SDS011;37436;53.230;6.614;2023-03-20T15:35:19;16.60;;;8.77;;
31692;SDS011;37436;53.230;6.614;2023-03-20T15:37:47;17.25;;;8.90;;
31692;SDS011;37436;53.230;6.614;2023-03-20T15:42:56;18.38;;;8.82;;
31692;SDS011;37436;53.230;6.614;2023-03-20T15:45:32;18.17;;;7.88;;
31692;SDS011;37436;53.230;6.614;2023-03-20T15:48:06;14.65;;;8.20;;
31692;SDS011;37436;53.230;6.614;2023-03-20T15:50:33;14.95;;;5.53;;
31692;SDS011;37436;53.230;6.614;2023-03-20T15:53:01;15.88;;;8.52;;
31692;SDS011;37436;53.230;6.614;2023-03-20T15:55:27;13.75;;;7.50;;
31692;SDS011;37436;53.230;6.614;2023-03-20T15:57:55;17.35;;;9.30;;
31692;SDS011;37436;53.230;6.614;2023-03-20T16:00:29;17.10;;;9.15;;
31692;SDS011;37436;53.230;6.614;2023-03-20T16:03:03;13.38;;;7.45;;
31692;SDS011;37436;53.230;6.614;2023-03-20T16:05:30;13.85;;;8.45;;
31692;SDS011;37436;53.230;6.614;2023-03-20T16:07:56;17.08;;;9.40;;
31692;SDS011;37436;53.230;6.614;2023-03-20T16:10:36;19.80;;;9.93;;
31692;SDS011;37436;53.230;6.614;2023-03-20T16:13:05;19.20;;;8.13;;
31692;SDS011;37436;53.230;6.614;2023-03-20T16:15:32;15.52;;;9.63;;
31692;SDS011;37436;53.230;6.614;2023-03-20T16:17:59;18.73;;;10.25;;
31692;SDS011;37436;53.230;6.614;2023-03-20T16:20:27;21.40;;;8.55;;
31692;SDS011;37436;53.230;6.614;2023-03-20T16:22:58;14.25;;;8.02;;
31692;SDS011;37436;53.230;6.614;2023-03-20T16:25:25;19.15;;;10.23;;
31692;SDS011;37436;53.230;6.614;2023-03-20T16:27:51;17.08;;;9.18;;
31692;SDS011;37436;53.230;6.614;2023-03-20T16:30:19;16.80;;;9.50;;
31692;SDS011;37436;53.230;6.614;2023-03-20T16:32:48;25.25;;;9.52;;
31692;SDS011;37436;53.230;6.614;2023-03-20T16:35:19;18.88;;;8.75;;
31692;SDS011;37436;53.230;6.614;2023-03-20T16:37:48;15.77;;;8.35;;
31692;SDS011;37436;53.230;6.614;2023-03-20T16:42:41;16.77;;;9.52;;
31692;SDS011;37436;53.230;6.614;2023-03-20T16:45:24;17.75;;;9.68;;
31692;SDS011;37436;53.230;6.614;2023-03-20T16:47:51;16.60;;;8.68;;
31692;SDS011;37436;53.230;6.614;2023-03-20T16:50:38;15.80;;;9.07;;
31692;SDS011;37436;53.230;6.614;2023-03-20T16:53:09;16.77;;;8.68;;
31692;SDS011;37436;53.230;6.614;2023-03-20T16:55:36;15.18;;;8.32;;
31692;SDS011;37436;53.230;6.614;2023-03-20T16:58:06;15.60;;;7.53;;
31692;SDS011;37436;53.230;6.614;2023-03-20T17:00:43;17.65;;;9.00;;
31692;SDS011;37436;53.230;6.614;2023-03-20T17:03:14;15.07;;;8.55;;
31692;SDS011;37436;53.230;6.614;2023-03-20T17:05:44;18.45;;;9.02;;
31692;SDS011;37436;53.230;6.614;2023-03-20T17:08:12;15.77;;;8.10;;
31692;SDS011;37436;53.230;6.614;2023-03-20T17:10:41;16.63;;;8.25;;
31692;SDS011;37436;53.230;6.614;2023-03-20T17:13:07;18.17;;;7.72;;
31692;SDS011;37436;53.230;6.614;2023-03-20T17:15:33;15.05;;;8.07;;
31692;SDS011;37436;53.230;6.614;2023-03-20T17:17:59;14.88;;;7.88;;
31692;SDS011;37436;53.230;6.614;2023-03-20T17:20:28;16.98;;;8.60;;
31692;SDS011;37436;53.230;6.614;2023-03-20T17:22:56;13.15;;;6.25;;
31692;SDS011;37436;53.230;6.614;2023-03-20T17:25:22;18.17;;;8.68;;
31692;SDS011;37436;53.230;6.614;2023-03-20T17:27:48;11.20;;;6.97;;
31692;SDS011;37436;53.230;6.614;2023-03-20T17:30:19;7.20;;;4.47;;
31692;SDS011;37436;53.230;6.614;2023-03-20T17:32:46;14.40;;;7.80;;
31692;SDS011;37436;53.230;6.614;2023-03-20T17:35:12;14.90;;;8.73;;
31692;SDS011;37436;53.230;6.614;2023-03-20T17:37:39;14.32;;;8.20;;
31692;SDS011;37436;53.230;6.614;2023-03-20T17:40:05;16.63;;;8.93;;
31692;SDS011;37436;53.230;6.614;2023-03-20T17:42:33;17.73;;;8.52;;
31692;SDS011;37436;53.230;6.614;2023-03-20T17:45:00;19.15;;;9.20;;
31692;SDS011;37436;53.230;6.614;2023-03-20T17:47:29;19.25;;;9.32;;
31692;SDS011;37436;53.230;6.614;2023-03-20T17:49:55;16.95;;;8.65;;
31692;SDS011;37436;53.230;6.614;2023-03-20T17:52:26;20.00;;;8.80;;
31692;SDS011;37436;53.230;6.614;2023-03-20T17:54:53;17.67;;;8.52;;
31692;SDS011;37436;53.230;6.614;2023-03-20T17:57:20;20.95;;;8.13;;
31692;SDS011;37436;53.230;6.614;2023-03-20T17:59:47;16.10;;;8.10;;
31692;SDS011;37436;53.230;6.614;2023-03-20T18:02:16;18.20;;;8.23;;
31692;SDS011;37436;53.230;6.614;2023-03-20T18:04:46;17.52;;;9.25;;
31692;SDS011;37436;53.230;6.614;2023-03-20T18:07:12;16.40;;;9.32;;
31692;SDS011;37436;53.230;6.614;2023-03-20T18:09:39;14.38;;;7.55;;
31692;SDS011;37436;53.230;6.614;2023-03-20T18:12:13;17.08;;;9.50;;
31692;SDS011;37436;53.230;6.614;2023-03-20T18:14:39;14.18;;;8.25;;
31692;SDS011;37436;53.230;6.614;2023-03-20T18:17:06;17.48;;;9.80;;
31692;SDS011;37436;53.230;6.614;2023-03-20T18:19:32;21.63;;;11.20;;
31692;SDS011;37436;53.230;6.614;2023-03-20T18:21:58;14.88;;;6.00;;
31692;SDS011;37436;53.230;6.614;2023-03-20T18:24:25;20.50;;;10.75;;
31692;SDS011;37436;53.230;6.614;2023-03-20T18:26:52;15.40;;;8.27;;
31692;SDS011;37436;53.230;6.614;2023-03-20T18:29:18;18.17;;;9.95;;
31692;SDS011;37436;53.230;6.614;2023-03-20T18:31:45;18.38;;;9.68;;
31692;SDS011;37436;53.230;6.614;2023-03-20T18:34:11;17.38;;;9.25;;